Time;durP1;ratioP1;P1;durP2;ratioP2;P2;SDS_P1;SDS_P2;PMS_P1;PMS_P2;Temp;Humidity;BMP_temperature;BMP_pressure;BME280_temperature;BME280_humidity;BME280_pressure;Samples;Min_cycle;Max_cycle;Signal;HPM_P1;HPM_P2
2024/01/27 00:02:08;;;;;;;5.57;2.78;;;;;;;-1.07;100.00;98988.38;5037103;28;20064;-58
2024/01/27 00:04:38;;;;;;;5.88;2.55;;;;;;;-1.03;100.00;98983.63;5036729;28;20049;-59
2024/01/27 00:07:04;;;;;;;10.98;2.45;;;;;;;-0.94;100.00;98983.66;5031158;28;20064;-58
2024/01/27 00:09:31;;;;;;;6.38;2.15;;;;;;;-0.87;100.00;98983.06;5036358;28;20412;-59
2024/01/27 00:11:58;;;;;;;6.70;2.10;;;;;;;-0.85;100.00;98979.31;5034697;28;20048;-57
2024/01/27 00:14:24;;;;;;;4.05;1.92;;;;;;;-0.82;100.00;98986.16;5035507;28;20037;-58
2024/01/27 00:16:51;;;;;;;5.95;1.95;;;;;;;-0.81;100.00;98987.88;5037429;28;20055;-58
2024/01/27 00:19:17;;;;;;;6.10;2.40;;;;;;;-0.85;100.00;98992.59;5041081;28;20039;-59
2024/01/27 00:21:44;;;;;;;5.28;2.53;;;;;;;-0.87;100.00;99004.34;5035749;28;20507;-59
2024/01/27 00:24:13;;;;;;;6.45;2.05;;;;;;;-0.89;100.00;99001.81;5035864;28;20041;-59
2024/01/27 00:26:40;;;;;;;7.32;2.33;;;;;;;-0.92;100.00;99007.44;5035672;28;20459;-58
2024/01/27 00:29:06;;;;;;;12.23;2.83;;;;;;;-0.94;100.00;99010.25;5039518;28;20068;-58
2024/01/27 00:31:33;;;;;;;8.52;3.00;;;;;;;-0.92;100.00;99010.09;5035959;28;20036;-58
2024/01/27 00:33:59;;;;;;;5.60;1.98;;;;;;;-0.99;100.00;99006.31;5036076;28;20087;-57
2024/01/27 00:36:27;;;;;;;5.47;1.90;;;;;;;-1.08;100.00;99006.13;5041898;28;20048;-56
2024/01/27 00:38:53;;;;;;;11.30;2.70;;;;;;;-1.13;100.00;99004.88;5042030;28;20053;-56
2024/01/27 00:41:20;;;;;;;9.45;2.78;;;;;;;-1.22;100.00;98999.38;5032805;28;20045;-57
2024/01/27 00:43:47;;;;;;;7.30;2.97;;;;;;;-1.26;100.00;99013.09;5042797;28;20519;-58
2024/01/27 00:46:14;;;;;;;9.25;2.70;;;;;;;-1.32;100.00;99003.84;5028440;28;20666;-56
2024/01/27 00:48:41;;;;;;;7.50;3.13;;;;;;;-1.47;100.00;99003.38;5035332;28;20076;-56
2024/01/27 00:51:07;;;;;;;9.27;2.97;;;;;;;-1.49;100.00;99010.63;5033872;28;20037;-56
2024/01/27 00:53:34;;;;;;;8.15;2.65;;;;;;;-1.53;100.00;99015.38;5042483;28;20060;-58
2024/01/27 00:56:01;;;;;;;7.78;3.10;;;;;;;-1.59;100.00;99023.84;5028830;28;20056;-59
2024/01/27 00:58:27;;;;;;;9.45;3.40;;;;;;;-1.56;100.00;99018.28;5039148;28;20136;-57
2024/01/27 01:00:54;;;;;;;5.88;2.50;;;;;;;-1.60;100.00;99017.72;5040869;28;20056;-58
2024/01/27 01:03:20;;;;;;;6.15;2.78;;;;;;;-1.63;100.00;99019.78;5039472;28;20064;-58
2024/01/27 01:05:47;;;;;;;6.75;2.90;;;;;;;-1.68;100.00;99017.53;5023367;28;20413;-59
2024/01/27 01:08:14;;;;;;;6.60;2.88;;;;;;;-1.72;100.00;99016.13;5035284;28;20045;-58
2024/01/27 01:10:40;;;;;;;6.13;3.40;;;;;;;-1.73;100.00;99015.25;5027030;28;20048;-58
2024/01/27 01:13:07;;;;;;;6.28;2.55;;;;;;;-1.73;100.00;99019.75;5022280;28;20599;-57
2024/01/27 01:15:33;;;;;;;6.72;2.45;;;;;;;-1.77;100.00;99021.81;5024361;28;20048;-58
2024/01/27 01:18:00;;;;;;;7.03;2.95;;;;;;;-1.80;100.00;99018.59;5028271;28;20127;-58
2024/01/27 01:20:27;;;;;;;6.93;2.50;;;;;;;-1.75;100.00;99021.69;5039883;28;20831;-57
2024/01/27 01:22:53;;;;;;;4.97;2.58;;;;;;;-1.70;100.00;99027.44;5042560;28;20041;-59
2024/01/27 01:25:20;;;;;;;8.55;2.63;;;;;;;-1.64;100.00;99032.25;5032606;28;20048;-59
2024/01/27 01:27:49;;;;;;;4.18;2.25;;;;;;;-1.66;100.00;99028.03;5041641;28;20036;-58
2024/01/27 01:30:16;;;;;;;8.13;2.50;;;;;;;-1.69;100.00;99021.19;5051987;28;20040;-59
2024/01/27 01:32:43;;;;;;;3.65;1.95;;;;;;;-1.72;100.00;99024.94;5035972;28;20045;-59
2024/01/27 01:35:10;;;;;;;9.50;2.45;;;;;;;-1.78;100.00;99028.09;5044325;28;20060;-59
2024/01/27 01:37:37;;;;;;;7.18;2.00;;;;;;;-1.84;100.00;99026.81;5037722;28;20045;-58
2024/01/27 01:40:04;;;;;;;8.35;2.70;;;;;;;-1.89;100.00;99030.81;5043552;28;20396;-59
2024/01/27 01:42:32;;;;;;;3.97;2.17;;;;;;;-1.89;100.00;99034.34;5054198;28;20511;-58
2024/01/27 01:44:58;;;;;;;12.35;3.22;;;;;;;-1.93;100.00;99032.91;5040956;28;20030;-57
2024/01/27 01:47:25;;;;;;;8.05;3.08;;;;;;;-1.90;100.00;99037.13;5047220;28;20038;-57
2024/01/27 01:49:52;;;;;;;9.13;3.25;;;;;;;-1.91;100.00;99032.78;5037500;28;20056;-59
2024/01/27 01:52:21;;;;;;;7.43;2.40;;;;;;;-1.94;100.00;99038.34;5047568;28;20040;-58
2024/01/27 01:54:50;;;;;;;6.90;2.53;;;;;;;-2.00;100.00;99037.91;5036663;28;20052;-59
2024/01/27 01:57:17;;;;;;;7.32;2.55;;;;;;;-1.99;100.00;99036.91;5036547;28;20103;-56
2024/01/27 01:59:44;;;;;;;5.07;2.50;;;;;;;-2.01;100.00;99046.84;5038044;28;20055;-57
2024/01/27 02:02:12;;;;;;;6.63;2.65;;;;;;;-2.02;100.00;99045.16;5049837;28;20044;-57
2024/01/27 02:04:40;;;;;;;9.02;3.03;;;;;;;-1.99;100.00;99052.03;5044834;28;20048;-57
2024/01/27 02:07:07;;;;;;;6.32;2.85;;;;;;;-2.00;100.00;99047.66;5049030;28;20101;-58
2024/01/27 02:09:34;;;;;;;8.60;3.45;;;;;;;-2.04;100.00;99048.88;5043372;28;20055;-58
2024/01/27 02:12:01;;;;;;;8.13;2.80;;;;;;;-2.12;100.00;99046.88;5056717;28;20668;-57
2024/01/27 02:14:28;;;;;;;6.60;2.40;;;;;;;-2.15;100.00;99048.00;5030476;28;20634;-58
2024/01/27 02:16:54;;;;;;;6.85;2.38;;;;;;;-2.18;100.00;99050.91;5039988;28;20111;-58
2024/01/27 02:19:21;;;;;;;9.30;2.25;;;;;;;-2.19;100.00;99051.03;5044256;28;20377;-58
2024/01/27 02:21:48;;;;;;;6.32;2.10;;;;;;;-2.22;100.00;99054.78;5036450;28;20056;-57
2024/01/27 02:24:14;;;;;;;11.05;3.17;;;;;;;-2.27;100.00;99067.59;5037115;28;20037;-58
2024/01/27 02:26:41;;;;;;;8.20;3.15;;;;;;;-2.29;100.00;99067.72;5045022;28;20044;-58
2024/01/27 02:29:07;;;;;;;11.43;3.08;;;;;;;-2.30;100.00;99076.66;5041250;28;20680;-59
2024/01/27 02:31:34;;;;;;;7.82;3.38;;;;;;;-2.29;100.00;99077.50;5052413;28;20530;-59
2024/01/27 02:34:00;;;;;;;12.10;3.47;;;;;;;-2.28;100.00;99080.00;5034097;28;20740;-57
2024/01/27 02:36:27;;;;;;;7.50;3.50;;;;;;;-2.30;100.00;99087.28;5043126;28;20449;-59
2024/01/27 02:38:54;;;;;;;10.85;3.90;;;;;;;-2.30;100.00;99086.41;5050769;28;20098;-59
2024/01/27 02:41:20;;;;;;;10.70;3.22;;;;;;;-2.35;100.00;99097.44;5043194;28;20098;-58
2024/01/27 02:43:47;;;;;;;9.43;3.60;;;;;;;-2.34;100.00;99101.75;5046692;28;20044;-58
2024/01/27 02:46:15;;;;;;;7.90;3.40;;;;;;;-2.38;100.00;99101.16;5041767;28;20041;-57
2024/01/27 02:48:42;;;;;;;5.97;3.25;;;;;;;-2.35;100.00;99087.63;5044983;28;20133;-58
2024/01/27 02:51:09;;;;;;;5.40;3.20;;;;;;;-2.36;100.00;99093.09;5043419;28;20052;-58
2024/01/27 02:53:35;;;;;;;6.05;3.40;;;;;;;-2.40;100.00;99084.53;5042082;28;20622;-56
2024/01/27 02:56:02;;;;;;;10.45;3.15;;;;;;;-2.46;100.00;99084.19;5034058;28;20040;-58
2024/01/27 02:58:28;;;;;;;9.63;3.15;;;;;;;-2.51;100.00;99080.09;5052218;28;20041;-59
2024/01/27 03:00:55;;;;;;;6.57;3.35;;;;;;;-2.55;100.00;99086.63;5033059;28;20042;-57
2024/01/27 03:03:21;;;;;;;10.27;3.65;;;;;;;-2.52;100.00;99089.03;5044988;28;20759;-58
2024/01/27 03:05:48;;;;;;;10.82;3.08;;;;;;;-2.56;100.00;99086.75;5042684;28;20037;-58
2024/01/27 03:08:15;;;;;;;8.45;3.70;;;;;;;-2.56;100.00;99092.03;5055552;28;20056;-59
2024/01/27 03:10:41;;;;;;;8.27;3.92;;;;;;;-2.57;100.00;99100.97;5037868;28;20129;-58
2024/01/27 03:13:08;;;;;;;6.32;2.80;;;;;;;-2.56;100.00;99111.47;5046353;28;20050;-59
2024/01/27 03:15:34;;;;;;;8.10;3.42;;;;;;;-2.60;100.00;99104.72;5051950;28;20117;-59
2024/01/27 03:18:01;;;;;;;6.28;3.90;;;;;;;-2.59;100.00;99109.06;5046043;28;20091;-59
2024/01/27 03:20:28;;;;;;;7.45;4.03;;;;;;;-2.63;100.00;99104.97;5045087;28;20037;-58
2024/01/27 03:22:54;;;;;;;10.65;3.97;;;;;;;-2.61;100.00;99108.34;5050903;28;20056;-59
2024/01/27 03:25:21;;;;;;;7.88;3.60;;;;;;;-2.59;100.00;99110.88;5047150;28;20488;-59
2024/01/27 03:27:47;;;;;;;12.93;4.05;;;;;;;-2.61;100.00;99119.78;5047218;28;20452;-58
2024/01/27 03:30:14;;;;;;;8.40;3.97;;;;;;;-2.59;100.00;99118.84;5043827;28;20431;-58
2024/01/27 03:32:40;;;;;;;7.22;4.05;;;;;;;-2.59;100.00;99118.84;5027228;28;20493;-58
2024/01/27 03:35:07;;;;;;;6.90;3.95;;;;;;;-2.58;100.00;99125.81;5034171;28;20117;-58
2024/01/27 03:37:34;;;;;;;9.48;3.10;;;;;;;-2.58;100.00;99126.66;5044434;28;20048;-58
2024/01/27 03:40:01;;;;;;;9.25;3.00;;;;;;;-2.53;100.00;99139.56;5046459;28;20033;-59
2024/01/27 03:42:28;;;;;;;12.00;3.45;;;;;;;-2.55;100.00;99137.03;5043376;28;20417;-57
2024/01/27 03:44:54;;;;;;;10.43;3.03;;;;;;;-2.56;100.00;99131.84;5039140;28;20099;-57
2024/01/27 03:47:21;;;;;;;6.65;2.75;;;;;;;-2.61;100.00;99138.34;5044755;28;20056;-58
2024/01/27 03:49:47;;;;;;;10.38;3.17;;;;;;;-2.68;100.00;99138.97;5045635;28;20061;-56
2024/01/27 03:52:14;;;;;;;7.30;3.33;;;;;;;-2.70;100.00;99138.28;5043166;28;20134;-57
2024/01/27 03:54:41;;;;;;;10.57;3.05;;;;;;;-2.71;100.00;99141.88;5050161;28;20037;-58
2024/01/27 03:57:07;;;;;;;14.88;3.75;;;;;;;-2.68;100.00;99141.63;5040508;28;20043;-55
2024/01/27 03:59:34;;;;;;;10.45;3.05;;;;;;;-2.66;100.00;99143.19;5052237;28;20639;-58
2024/01/27 04:02:00;;;;;;;7.25;3.58;;;;;;;-2.66;100.00;99137.88;5052396;28;20049;-57
2024/01/27 04:04:27;;;;;;;7.03;3.83;;;;;;;-2.66;100.00;99139.72;5043461;28;20082;-59
2024/01/27 04:06:53;;;;;;;8.15;2.53;;;;;;;-2.54;100.00;99140.53;5044699;28;20051;-59
2024/01/27 04:09:20;;;;;;;7.85;2.72;;;;;;;-2.42;100.00;99136.88;5040277;28;20526;-58
2024/01/27 04:11:47;;;;;;;4.82;2.20;;;;;;;-2.41;100.00;99143.00;5050832;28;20468;-58
2024/01/27 04:14:13;;;;;;;7.28;2.25;;;;;;;-2.47;100.00;99140.88;5050471;28;20048;-59
2024/01/27 04:16:40;;;;;;;9.63;3.13;;;;;;;-2.56;100.00;99140.66;5052506;28;20052;-59
2024/01/27 04:19:06;;;;;;;9.93;2.85;;;;;;;-2.58;100.00;99145.22;5048200;28;20116;-59
2024/01/27 04:21:33;;;;;;;9.27;3.35;;;;;;;-2.64;100.00;99143.06;5039199;28;20049;-58
2024/01/27 04:24:00;;;;;;;6.38;2.55;;;;;;;-2.63;100.00;99144.75;5044869;28;20045;-59
2024/01/27 04:26:27;;;;;;;10.50;2.65;;;;;;;-2.59;100.00;99148.00;5038349;28;20038;-58
2024/01/27 04:28:53;;;;;;;6.25;2.58;;;;;;;-2.57;100.00;99148.72;5046526;28;20124;-58
2024/01/27 04:31:20;;;;;;;7.22;2.47;;;;;;;-2.57;100.00;99151.38;5061107;28;20059;-58
2024/01/27 04:33:46;;;;;;;8.43;2.67;;;;;;;-2.58;100.00;99145.22;5032607;28;20037;-58
2024/01/27 04:36:13;;;;;;;6.80;2.78;;;;;;;-2.58;100.00;99145.22;5039323;28;20123;-56
2024/01/27 04:38:39;;;;;;;7.05;2.90;;;;;;;-2.58;100.00;99141.75;5042812;28;20071;-59
2024/01/27 04:41:06;;;;;;;8.30;2.75;;;;;;;-2.59;100.00;99146.19;5036570;28;20045;-59
2024/01/27 04:43:32;;;;;;;6.65;2.85;;;;;;;-2.58;100.00;99155.00;5048835;28;20630;-59
2024/01/27 04:45:59;;;;;;;9.73;3.08;;;;;;;-2.49;100.00;99151.59;5049551;28;20030;-56
2024/01/27 04:48:25;;;;;;;7.40;2.72;;;;;;;-2.48;100.00;99155.94;5036935;28;20052;-58
2024/01/27 04:50:52;;;;;;;7.63;2.70;;;;;;;-2.59;100.00;99151.50;5045004;28;20625;-59
2024/01/27 04:53:19;;;;;;;6.50;3.13;;;;;;;-2.68;100.00;99152.22;5045665;28;20076;-57
2024/01/27 04:55:45;;;;;;;5.72;2.55;;;;;;;-2.65;100.00;99154.66;5045650;28;20183;-57
2024/01/27 04:58:12;;;;;;;7.88;2.92;;;;;;;-2.69;100.00;99153.22;5041691;28;20039;-57
2024/01/27 05:00:38;;;;;;;4.38;2.45;;;;;;;-2.72;100.00;99162.25;5055685;28;20041;-57
2024/01/27 05:03:07;;;;;;;5.60;2.83;;;;;;;-2.64;100.00;99166.94;5044107;28;20037;-57
2024/01/27 05:05:34;;;;;;;9.57;2.67;;;;;;;-2.62;100.00;99159.69;5045094;28;20535;-56
2024/01/27 05:08:03;;;;;;;6.38;2.35;;;;;;;-2.61;100.00;99167.53;5045928;28;20049;-57
2024/01/27 05:10:29;;;;;;;9.45;2.50;;;;;;;-2.64;100.00;99165.13;5051716;28;20106;-57
2024/01/27 05:12:56;;;;;;;6.40;3.08;;;;;;;-2.64;100.00;99169.59;5058933;28;20044;-56
2024/01/27 05:15:23;;;;;;;8.15;2.53;;;;;;;-2.63;100.00;99165.97;5052435;28;20037;-58
2024/01/27 05:17:49;;;;;;;5.55;3.00;;;;;;;-2.69;100.00;99171.78;5048918;28;20040;-58
2024/01/27 05:20:17;;;;;;;6.63;3.13;;;;;;;-2.81;100.00;99166.47;5036925;28;20115;-57
2024/01/27 05:22:44;;;;;;;7.63;3.03;;;;;;;-2.84;100.00;99168.53;5034250;28;20045;-57
2024/01/27 05:25:11;;;;;;;5.00;2.70;;;;;;;-2.82;100.00;99164.78;5037744;28;20045;-58
2024/01/27 05:27:38;;;;;;;6.07;2.47;;;;;;;-2.81;100.00;99176.22;5037234;28;20136;-58
2024/01/27 05:30:06;;;;;;;7.43;2.58;;;;;;;-2.70;100.00;99180.69;5039244;28;20043;-56
2024/01/27 05:32:33;;;;;;;9.73;3.25;;;;;;;-2.79;100.00;99172.50;5036215;28;20037;-59
2024/01/27 05:34:59;;;;;;;9.35;3.60;;;;;;;-2.84;100.00;99177.31;5046801;28;20060;-58
2024/01/27 05:37:26;;;;;;;7.85;3.58;;;;;;;-2.82;100.00;99171.88;5042011;28;20045;-58
2024/01/27 05:39:52;;;;;;;7.95;2.92;;;;;;;-3.06;100.00;99154.31;5042162;28;20041;-59
2024/01/27 05:42:19;;;;;;;8.90;3.90;;;;;;;-3.23;100.00;99160.91;5037192;28;20065;-59
2024/01/27 05:44:46;;;;;;;10.82;3.58;;;;;;;-3.27;100.00;99165.63;5032950;28;20060;-57
2024/01/27 05:47:12;;;;;;;13.55;3.97;;;;;;;-3.27;100.00;99168.25;5033934;28;20053;-57
2024/01/27 05:49:39;;;;;;;9.35;3.58;;;;;;;-3.20;100.00;99164.19;5041863;28;20152;-58
2024/01/27 05:52:05;;;;;;;7.03;2.70;;;;;;;-3.14;100.00;99166.34;5050899;28;20064;-59
2024/01/27 05:54:33;;;;;;;7.53;3.00;;;;;;;-3.19;100.00;99175.59;5050669;28;20063;-56
2024/01/27 05:56:59;;;;;;;10.43;3.20;;;;;;;-3.19;100.00;99167.66;5041424;28;20041;-59
2024/01/27 05:59:26;;;;;;;7.25;2.80;;;;;;;-3.20;100.00;99166.84;5040607;28;20722;-57
2024/01/27 06:01:53;;;;;;;8.68;2.97;;;;;;;-3.16;100.00;99170.09;5049061;28;20044;-57
2024/01/27 06:04:19;;;;;;;7.68;2.47;;;;;;;-3.04;100.00;99170.94;5043238;28;20033;-57
2024/01/27 06:06:46;;;;;;;8.48;2.70;;;;;;;-3.08;100.00;99165.03;5043656;28;20037;-57
2024/01/27 06:09:13;;;;;;;9.20;2.70;;;;;;;-3.06;100.00;99162.25;5044600;28;20056;-57
2024/01/27 06:11:40;;;;;;;6.63;3.03;;;;;;;-2.99;100.00;99159.97;5041247;28;20394;-55
2024/01/27 06:14:07;;;;;;;8.27;2.80;;;;;;;-3.01;100.00;99168.91;5043486;28;20033;-56
2024/01/27 06:16:35;;;;;;;8.45;3.08;;;;;;;-3.06;100.00;99175.50;5032332;28;20037;-56
2024/01/27 06:19:02;;;;;;;6.68;2.58;;;;;;;-3.08;100.00;99169.47;5046837;28;20045;-58
2024/01/27 06:21:28;;;;;;;7.10;2.92;;;;;;;-3.08;100.00;99185.38;5043132;28;20041;-57
2024/01/27 06:23:55;;;;;;;8.20;2.90;;;;;;;-3.09;100.00;99181.91;5040575;28;20468;-56
2024/01/27 06:26:21;;;;;;;7.22;3.80;;;;;;;-2.98;100.00;99182.84;5035169;28;20554;-58
2024/01/27 06:28:48;;;;;;;9.50;4.03;;;;;;;-2.90;100.00;99188.41;5038412;28;20048;-58
2024/01/27 06:31:16;;;;;;;10.95;3.85;;;;;;;-2.87;100.00;99188.19;5043163;28;20094;-57
2024/01/27 06:33:43;;;;;;;9.55;3.30;;;;;;;-2.84;100.00;99185.25;5045863;28;20045;-57
2024/01/27 06:36:09;;;;;;;7.35;3.33;;;;;;;-2.87;100.00;99190.81;5046504;28;20044;-57
2024/01/27 06:38:39;;;;;;;5.95;3.03;;;;;;;-2.89;100.00;99190.94;5044598;28;20040;-57
2024/01/27 06:41:05;;;;;;;6.72;3.33;;;;;;;-2.87;100.00;99188.19;5043659;28;20475;-56
2024/01/27 06:43:32;;;;;;;6.15;3.17;;;;;;;-2.93;100.00;99191.28;5037932;28;20055;-58
2024/01/27 06:45:58;;;;;;;7.47;3.33;;;;;;;-2.97;100.00;99182.75;5046363;28;20118;-61
2024/01/27 06:48:26;;;;;;;4.55;2.40;;;;;;;-2.94;100.00;99179.88;5039036;28;20741;-60
2024/01/27 06:50:53;;;;;;;8.55;2.88;;;;;;;-2.89;100.00;99179.47;5040481;28;20041;-60
2024/01/27 06:53:20;;;;;;;6.75;2.83;;;;;;;-2.89;100.00;99190.09;5036046;28;20038;-60
2024/01/27 06:55:47;;;;;;;8.85;3.42;;;;;;;-2.84;100.00;99189.72;5032320;28;20684;-61
2024/01/27 06:58:13;;;;;;;6.22;3.63;;;;;;;-2.81;100.00;99192.97;5044807;28;20045;-59
2024/01/27 07:00:40;;;;;;;8.23;3.90;;;;;;;-2.84;100.00;99195.03;5039623;28;20053;-60
2024/01/27 07:03:07;;;;;;;8.90;3.55;;;;;;;-2.87;100.00;99189.00;5042882;28;20489;-58
2024/01/27 07:05:40;;;;;;;14.05;4.18;;;;;;;-2.96;100.00;99187.06;5038448;28;20051;-61
2024/01/27 07:08:07;;;;;;;11.35;4.68;;;;;;;-3.00;100.00;99190.94;5043100;28;20105;-61
2024/01/27 07:10:35;;;;;;;8.60;3.53;;;;;;;-3.05;100.00;99193.94;5035536;28;20562;-60
2024/01/27 07:13:02;;;;;;;8.27;4.07;;;;;;;-3.08;100.00;99199.47;5044844;28;20048;-60
2024/01/27 07:15:28;;;;;;;8.88;4.22;;;;;;;-3.05;100.00;99188.66;5052495;28;20044;-59
2024/01/27 07:17:55;;;;;;;8.88;4.22;;;;;;;-3.02;100.00;99199.00;5041458;28;20102;-61
2024/01/27 07:20:24;;;;;;;9.75;4.70;;;;;;;-3.06;100.00;99202.03;5039693;28;20052;-59
2024/01/27 07:22:50;;;;;;;9.13;4.80;;;;;;;-3.14;100.00;99194.63;5039989;28;20512;-60
2024/01/27 07:25:17;;;;;;;13.85;5.45;;;;;;;-3.20;100.00;99195.13;5030388;28;20099;-61
2024/01/27 07:27:44;;;;;;;10.77;5.63;;;;;;;-3.26;100.00;99185.84;5051621;28;20055;-61
2024/01/27 07:30:11;;;;;;;11.48;6.63;;;;;;;-3.23;100.00;99198.00;5048484;28;20041;-60
2024/01/27 07:32:37;;;;;;;13.95;5.90;;;;;;;-3.24;100.00;99199.84;5049818;28;20043;-60
2024/01/27 07:35:05;;;;;;;13.95;6.07;;;;;;;-3.23;100.00;99203.31;5042765;28;20083;-60
2024/01/27 07:37:32;;;;;;;10.75;5.45;;;;;;;-3.22;100.00;99203.19;5046633;28;20044;-60
2024/01/27 07:39:59;;;;;;;13.88;5.85;;;;;;;-3.15;100.00;99212.38;5037819;28;20095;-58
2024/01/27 07:42:25;;;;;;;10.57;4.82;;;;;;;-3.19;100.00;99204.75;5038976;28;20041;-60
2024/01/27 07:44:52;;;;;;;14.00;5.55;;;;;;;-3.19;100.00;99208.25;5045363;28;20099;-59
2024/01/27 07:47:18;;;;;;;13.50;5.93;;;;;;;-3.18;100.00;99211.75;5043478;28;20120;-59
2024/01/27 07:49:45;;;;;;;12.50;5.53;;;;;;;-3.17;100.00;99211.63;5052597;28;20702;-60
2024/01/27 07:52:12;;;;;;;13.98;5.82;;;;;;;-3.13;100.00;99207.78;5056043;28;20126;-61
2024/01/27 07:54:40;;;;;;;13.15;5.38;;;;;;;-3.07;100.00;99206.47;5051203;28;20060;-59
2024/01/27 07:57:06;;;;;;;16.65;5.40;;;;;;;-2.96;100.00;99207.41;5051328;28;20103;-60
2024/01/27 07:59:33;;;;;;;8.50;5.05;;;;;;;-2.92;100.00;99208.88;5041728;28;20411;-61
2024/01/27 08:02:00;;;;;;;13.02;5.03;;;;;;;-2.78;100.00;99207.81;5045755;28;20048;-61
2024/01/27 08:04:27;;;;;;;17.13;5.30;;;;;;;-2.92;100.00;99192.97;5045274;28;20044;-60
2024/01/27 08:06:53;;;;;;;12.93;5.35;;;;;;;-2.90;100.00;99196.34;5036240;28;20038;-61
2024/01/27 08:09:20;;;;;;;10.38;5.43;;;;;;;-2.87;100.00;99196.94;5053229;28;20067;-61
2024/01/27 08:11:51;;;;;;;10.07;5.35;;;;;;;-2.83;100.00;99192.28;5045485;28;20053;-60
2024/01/27 08:14:18;;;;;;;12.23;6.43;;;;;;;-2.76;100.00;99184.69;5052070;28;20045;-61
2024/01/27 08:16:45;;;;;;;11.68;5.68;;;;;;;-2.67;100.00;99199.00;5038877;28;20119;-59
2024/01/27 08:19:11;;;;;;;11.13;5.90;;;;;;;-2.61;100.00;99203.84;5037361;28;20049;-60
2024/01/27 08:21:38;;;;;;;13.73;6.93;;;;;;;-2.51;100.00;99202.13;5038275;28;20497;-61
2024/01/27 08:24:05;;;;;;;17.58;7.78;;;;;;;-2.39;100.00;99197.63;5043024;28;20041;-61
2024/01/27 08:26:32;;;;;;;11.73;5.90;;;;;;;-2.30;100.00;99188.09;5047418;28;20037;-61
2024/01/27 08:28:58;;;;;;;13.05;5.82;;;;;;;-2.22;100.00;99190.13;5032819;28;20535;-61
2024/01/27 08:31:25;;;;;;;9.38;5.80;;;;;;;-2.12;100.00;99185.78;5052742;28;20049;-60
2024/01/27 08:33:52;;;;;;;12.18;6.28;;;;;;;-2.03;100.00;99180.69;5044276;28;20543;-60
2024/01/27 08:36:18;;;;;;;11.00;5.57;;;;;;;-2.02;100.00;99179.69;5038941;28;20045;-50
2024/01/27 08:38:45;;;;;;;12.15;5.20;;;;;;;-2.02;100.00;99183.22;5040766;28;20119;-50
2024/01/27 08:41:12;;;;;;;10.45;4.72;;;;;;;-1.93;100.00;99186.06;5051025;28;20042;-51
2024/01/27 08:43:39;;;;;;;7.88;4.10;;;;;;;-1.77;100.00;99173.19;5049024;28;20052;-40
2024/01/27 08:46:07;;;;;;;10.20;5.40;;;;;;;-1.68;100.00;99170.75;5043588;28;20049;-41
2024/01/27 08:48:34;;;;;;;12.23;4.45;;;;;;;-1.66;100.00;99174.94;5029384;28;20048;-63
2024/01/27 08:51:00;;;;;;;9.30;3.80;;;;;;;-1.59;100.00;99169.97;5047412;28;20045;-63
2024/01/27 08:53:27;;;;;;;12.35;5.18;;;;;;;-1.48;100.00;99177.03;5021215;28;20048;-63
2024/01/27 08:55:54;;;;;;;7.82;4.43;;;;;;;-1.39;100.00;99170.97;5037098;28;20048;-61
2024/01/27 08:58:20;;;;;;;12.70;5.97;;;;;;;-1.25;100.00;99172.41;5030895;28;20049;-61
2024/01/27 09:00:47;;;;;;;10.30;6.22;;;;;;;-1.09;100.00;99173.78;5043254;28;20056;-60
2024/01/27 09:03:14;;;;;;;14.38;5.78;;;;;;;-0.94;100.00;99174.25;5045421;28;20515;-63
2024/01/27 09:05:43;;;;;;;9.80;5.25;;;;;;;-0.73;100.00;99176.88;5045407;28;20152;-63
2024/01/27 09:08:10;;;;;;;9.27;4.53;;;;;;;-0.63;100.00;99176.06;5045558;28;20171;-64
2024/01/27 09:10:37;;;;;;;6.75;4.20;;;;;;;-0.58;100.00;99180.00;5045109;28;20578;-61
2024/01/27 09:13:04;;;;;;;9.60;4.57;;;;;;;-0.45;100.00;99177.09;5036768;28;20038;-62
2024/01/27 09:15:31;;;;;;;9.05;4.63;;;;;;;-0.33;100.00;99185.81;5046505;28;20385;-62
2024/01/27 09:17:57;;;;;;;9.38;4.18;;;;;;;-0.20;100.00;99182.91;5030865;28;20500;-62
2024/01/27 09:20:24;;;;;;;8.60;3.95;;;;;;;-0.12;100.00;99184.03;5051987;28;20039;-61
2024/01/27 09:22:51;;;;;;;7.80;4.35;;;;;;;-0.05;100.00;99182.47;5047703;28;20116;-62
2024/01/27 09:25:17;;;;;;;12.75;4.70;;;;;;;0.07;100.00;99183.22;5046398;28;20121;-62
2024/01/27 09:27:44;;;;;;;6.85;3.72;;;;;;;0.11;100.00;99188.09;5046744;28;20045;-63
2024/01/27 09:30:11;;;;;;;8.13;4.47;;;;;;;0.24;100.00;99195.00;5043096;28;20576;-63
2024/01/27 09:32:39;;;;;;;7.32;3.80;;;;;;;0.43;100.00;99191.47;5033018;28;20543;-62
2024/01/27 09:35:06;;;;;;;11.88;4.15;;;;;;;0.60;100.00;99195.25;5033533;28;20056;-62
2024/01/27 09:37:33;;;;;;;10.65;3.63;;;;;;;0.82;100.00;99195.06;5032745;28;20136;-62
2024/01/27 09:40:02;;;;;;;9.77;3.53;;;;;;;0.94;100.00;99203.75;5038275;28;20048;-62
2024/01/27 09:42:30;;;;;;;8.52;3.58;;;;;;;1.04;100.00;99202.72;5034693;28;20056;-61
2024/01/27 09:44:58;;;;;;;9.50;3.10;;;;;;;1.25;100.00;99199.00;5043656;28;20052;-62
2024/01/27 09:47:26;;;;;;;8.18;2.78;;;;;;;1.36;100.00;99195.31;5045260;28;20123;-62
2024/01/27 09:49:52;;;;;;;7.18;2.75;;;;;;;1.54;100.00;99195.38;5040230;28;20036;-62
2024/01/27 09:52:19;;;;;;;6.47;2.83;;;;;;;1.66;100.00;99197.84;5042588;28;20045;-61
2024/01/27 09:54:46;;;;;;;7.10;2.50;;;;;;;1.74;100.00;99194.44;5049085;28;20053;-62
2024/01/27 09:57:13;;;;;;;12.57;3.55;;;;;;;1.77;100.00;99199.47;5037585;28;20040;-61
2024/01/27 09:59:44;;;;;;;6.80;2.58;;;;;;;1.84;100.00;99197.03;5041330;28;20048;-61
2024/01/27 10:02:13;;;;;;;10.73;3.03;;;;;;;1.93;100.00;99190.81;5046849;28;20033;-62
2024/01/27 10:04:42;;;;;;;8.38;2.80;;;;;;;2.00;100.00;99193.69;5040186;28;20051;-67
2024/01/27 10:07:09;;;;;;;9.93;2.80;;;;;;;2.11;100.00;99195.31;5042405;28;20048;-61
2024/01/27 10:09:36;;;;;;;5.50;2.53;;;;;;;2.18;100.00;99201.75;5053542;28;20108;-60
2024/01/27 10:12:03;;;;;;;9.15;3.03;;;;;;;2.31;100.00;99196.00;5046219;28;20076;-59
2024/01/27 10:14:40;;;;;;;7.47;3.00;;;;;;;2.41;100.00;99203.94;5048796;28;20045;-64
2024/01/27 10:17:11;;;;;;;9.30;2.65;;;;;;;2.48;100.00;99207.69;5022483;28;20052;-61
2024/01/27 10:19:38;;;;;;;6.95;2.42;;;;;;;2.47;100.00;99206.03;5024645;28;20044;-61
2024/01/27 10:22:10;;;;;;;9.45;3.42;;;;;;;2.44;100.00;99196.44;5019025;28;20045;-62
2024/01/27 10:24:36;;;;;;;9.98;2.95;;;;;;;2.44;100.00;99196.44;5041116;28;20416;-60
2024/01/27 10:27:04;;;;;;;6.53;3.25;;;;;;;2.45;100.00;99200.81;5035741;28;20041;-60
2024/01/27 10:29:31;;;;;;;6.00;2.58;;;;;;;2.44;100.00;99201.78;5050830;28;20457;-58
2024/01/27 10:32:09;;;;;;;8.55;3.08;;;;;;;2.43;100.00;99200.13;5039821;28;20114;-59
2024/01/27 10:34:35;;;;;;;6.30;2.90;;;;;;;2.52;100.00;99190.34;5035420;28;20052;-60
2024/01/27 10:37:02;;;;;;;7.38;2.50;;;;;;;2.60;100.00;99179.72;5043527;28;20041;-60
2024/01/27 10:39:29;;;;;;;6.28;2.60;;;;;;;2.75;100.00;99178.28;5051006;28;20113;-58
2024/01/27 10:41:55;;;;;;;6.40;2.92;;;;;;;2.85;100.00;99171.00;5043312;28;20040;-60
2024/01/27 10:44:22;;;;;;;9.75;3.13;;;;;;;2.93;100.00;99168.38;5041458;28;20079;-59
2024/01/27 10:46:49;;;;;;;8.68;3.08;;;;;;;2.96;100.00;99164.56;5051123;28;20708;-55
2024/01/27 10:49:17;;;;;;;8.27;3.33;;;;;;;3.01;100.00;99164.06;5044827;28;20100;-59
2024/01/27 10:51:55;;;;;;;8.18;2.95;;;;;;;3.05;100.00;99157.41;5032129;28;20067;-59
2024/01/27 10:54:27;;;;;;;9.15;2.55;;;;;;;3.11;100.00;99157.63;5041077;28;20045;-60
2024/01/27 10:56:58;;;;;;;;;;;;;;;3.18;100.00;99151.63;5037168;28;20056;-58
2024/01/27 10:59:27;;;;;;;16.48;4.05;;;;;;;3.21;100.00;99143.28;5047672;28;19924;-58
2024/01/27 11:01:54;;;;;;;11.27;3.58;;;;;;;3.21;100.00;99149.47;5042987;28;20127;-60
2024/01/27 11:04:21;;;;;;;7.97;3.22;;;;;;;3.24;100.00;99148.28;5034814;28;20052;-59
2024/01/27 11:06:48;;;;;;;9.45;3.00;;;;;;;3.25;100.00;99153.50;5037387;28;20041;-62
2024/01/27 11:09:17;;;;;;;6.03;2.53;;;;;;;3.24;100.00;99146.47;5031938;28;20056;-61
2024/01/27 11:11:45;;;;;;;11.05;3.60;;;;;;;3.24;100.00;99138.44;5044730;28;20048;-58
2024/01/27 11:14:11;;;;;;;10.48;3.28;;;;;;;3.29;100.00;99142.47;5044980;28;20128;-61
2024/01/27 11:16:43;;;;;;;8.88;2.90;;;;;;;3.40;100.00;99144.00;5048205;28;20167;-68
2024/01/27 11:19:11;;;;;;;;;;;;;;;3.45;100.00;99147.91;5035954;28;20059;-60
2024/01/27 11:21:38;;;;;;;7.65;2.55;;;;;;;3.46;100.00;99152.25;5026256;28;19924;-58
2024/01/27 11:24:15;;;;;;;5.57;2.78;;;;;;;3.42;100.00;99136.69;5027848;28;20049;-61